Aérodrome :
LOGIN :

S'inscrire | Disclaimer

   EN    FR    IT 

 










Légende :    VFR   VFR Marginal   IFR   IFR Intensif   IFR Très Intensif
Visi : 
Plafond : 
>= 8 km
>= 3000ft
5 à 8 km
1000 à 3000 ft
1500m à 5 km
500 à 1000 ft
800 à 1500m
200 à 500 ft
< 800m
< 200 ft
Symboles :   Orages  Brouillard  Fortes neiges  Fortes précipitations  Vent > 20 kt
SIGMETs :   Divers  Orages  Givrage  Turbulence  Onde Orograph.  Cendres Volcan.






- Altitude de l'aérodrome : 1674 ft
- Code IATA : BRN


LSZB - Bern Belp

DERNIER METAR :
  • 171820Z AUTO VRB03KT 9999 -SN SCT030 SCT040 BKN050 01/01 Q1023

METARs EXPIRÉS :
  • 171750Z AUTO VRB01KT 9999 BKN029 01/01 Q1023
  • 171720Z VRB02KT 9999 FEW018 BKN030 01/01 Q1023 NOSIG
  • 171650Z VRB02KT 9999 SCT029 BKN032 01/01 Q1022 NOSIG
  • 171620Z 08004KT 030V120 9999 BKN028 BKN035 01/01 Q1022 NOSIG
  • 171550Z 15005KT 070V230 9999 SCT027 SCT030 BKN048 02/02 Q1021 NOSIG

TAF TAF LSZB
Valide du 17 à 15h jusqu'au 18 à 00h UTC


171425Z 1715/1724 VRB03KT 6000 FEW010 BKN025
PROB40
TEMPO 1715/1718 3000 -SHSN BKN007
BECMG 1718/1721 NSW
ATIS : +41 22 417 40 76



MET'MAP, la Météo Aéronautique d'un coup d'oeil ! - Copyright ORBIFLY Décembre 2007 - Disclaimer

ORBIFLY MET'MAP TEAM :

Programmation & Développement : Alexandra Zaïnal
Sur une idée originale de : Baudouin d'Aumeries
Assistance à la programmation : Marc-Olivier Méhu
Soutien technique & logistique : Manuel Goepfert

Contact : metmap@orbifly.com




SOURCES & CREDITS :

   NOAA